Time;durP1;ratioP1;P1;durP2;ratioP2;P2;SDS_P1;SDS_P2;PMS_P1;PMS_P2;Temp;Humidity;BMP_temperature;BMP_pressure;BME280_temperature;BME280_humidity;BME280_pressure;Samples;Min_cycle;Max_cycle;Signal;HPM_P1;HPM_P2
2023/06/13 00:00:11;;;;;;;5.93;4.53;;;19.30;69.30;;;;;;5066602;28;20198;-59
2023/06/13 00:02:40;;;;;;;7.60;4.97;;;19.20;69.30;;;;;;5065698;28;20368;-59
2023/06/13 00:05:16;;;;;;;8.18;5.28;;;19.20;69.00;;;;;;5043371;28;20044;-59
2023/06/13 00:07:43;;;;;;;8.45;5.30;;;19.20;69.00;;;;;;5063198;28;20041;-59
2023/06/13 00:10:09;;;;;;;7.95;5.22;;;19.20;69.00;;;;;;5066706;28;20514;-59
2023/06/13 00:12:36;;;;;;;6.28;5.45;;;19.10;68.80;;;;;;5063450;28;20127;-59
2023/06/13 00:15:06;;;;;;;9.80;5.32;;;19.10;68.80;;;;;;5067884;28;20161;-59
2023/06/13 00:17:32;;;;;;;8.68;4.95;;;19.10;68.90;;;;;;5059861;28;20479;-58
2023/06/13 00:20:04;;;;;;;6.35;4.88;;;19.00;68.90;;;;;;5079521;28;20115;-58
2023/06/13 00:22:30;;;;;;;10.73;5.15;;;19.00;69.20;;;;;;5063224;28;20046;-57
2023/06/13 00:24:56;;;;;;;7.55;4.45;;;19.00;69.50;;;;;;5065346;28;20454;-58
2023/06/13 00:27:22;;;;;;;9.25;4.93;;;19.00;68.90;;;;;;5065557;28;20040;-59
2023/06/13 00:29:48;;;;;;;8.02;4.50;;;19.00;69.00;;;;;;5059621;28;20098;-57
2023/06/13 00:32:13;;;;;;;7.03;4.60;;;19.00;68.90;;;;;;5044757;28;20087;-59
2023/06/13 00:34:40;;;;;;;7.32;4.53;;;19.00;69.20;;;;;;5076779;28;20414;-59
2023/06/13 00:37:09;;;;;;;5.93;4.22;;;18.90;69.20;;;;;;5062496;28;20098;-58
2023/06/13 00:39:35;;;;;;;5.35;4.10;;;18.90;69.30;;;;;;5062407;28;20051;-59
2023/06/13 00:42:02;;;;;;;6.65;4.53;;;18.90;69.20;;;;;;5060510;28;20337;-59
2023/06/13 00:44:27;;;;;;;10.65;4.80;;;18.90;69.20;;;;;;5083548;28;20036;-59
2023/06/13 00:46:53;;;;;;;7.68;4.35;;;18.90;69.70;;;;;;5059252;28;20126;-59
2023/06/13 00:49:22;;;;;;;5.45;4.18;;;18.90;70.00;;;;;;5047250;28;20040;-58
2023/06/13 00:51:49;;;;;;;6.82;4.30;;;18.90;70.00;;;;;;5045961;28;20056;-59
2023/06/13 00:54:16;;;;;;;5.50;4.20;;;18.80;70.10;;;;;;5074558;28;20445;-58
2023/06/13 00:56:44;;;;;;;5.95;4.22;;;18.80;70.40;;;;;;5077583;28;20036;-58
2023/06/13 00:59:12;;;;;;;7.20;4.57;;;18.80;71.10;;;;;;5042993;28;20040;-59
2023/06/13 01:01:40;;;;;;;10.32;4.30;;;18.70;70.70;;;;;;5074937;28;20475;-59
2023/06/13 01:04:07;;;;;;;5.55;4.60;;;18.70;71.30;;;;;;5071152;28;20209;-59
2023/06/13 01:06:40;;;;;;;7.15;4.50;;;18.70;71.50;;;;;;5033568;28;20051;-59
2023/06/13 01:09:08;;;;;;;5.72;4.15;;;18.60;71.20;;;;;;5079489;28;20197;-59
2023/06/13 01:11:43;;;;;;;6.78;3.95;;;18.50;71.20;;;;;;5083408;28;20054;-58
2023/06/13 01:14:30;;;;;;;7.20;4.72;;;18.60;71.60;;;;;;5064719;28;20517;-59
2023/06/13 01:17:24;;;;;;;5.38;4.35;;;18.50;71.40;;;;;;5048924;28;20240;-58
2023/06/13 01:19:59;;;;;;;8.50;5.15;;;18.40;71.70;;;;;;5064490;28;20039;-59
2023/06/13 01:22:42;;;;;;;5.70;4.07;;;18.40;71.90;;;;;;5077233;28;20115;-59
2023/06/13 01:25:37;;;;;;;8.10;4.63;;;18.30;72.40;;;;;;5062110;28;20115;-59
2023/06/13 01:28:06;;;;;;;5.30;4.00;;;18.30;72.40;;;;;;5071729;28;20116;-59
2023/06/13 01:30:34;;;;;;;6.70;4.03;;;18.20;72.50;;;;;;5062119;28;20131;-59
2023/06/13 01:33:02;;;;;;;7.38;3.75;;;18.20;73.00;;;;;;5067182;28;20044;-59
2023/06/13 01:35:28;;;;;;;7.32;4.30;;;18.20;73.00;;;;;;5069817;28;20036;-57
2023/06/13 01:37:54;;;;;;;6.15;3.88;;;18.00;73.10;;;;;;5064747;28;20751;-59
2023/06/13 01:40:20;;;;;;;11.70;4.95;;;18.10;74.00;;;;;;5054117;28;20609;-58
2023/06/13 01:42:46;;;;;;;6.35;4.38;;;18.10;73.50;;;;;;5065189;28;20572;-58
2023/06/13 01:45:13;;;;;;;7.35;3.92;;;18.00;74.10;;;;;;5075722;28;20028;-59
2023/06/13 01:47:38;;;;;;;6.85;4.53;;;18.00;74.10;;;;;;5079432;28;20394;-59
2023/06/13 01:50:32;;;;;;;9.30;4.38;;;18.00;74.00;;;;;;5048952;28;20302;-58
2023/06/13 01:53:04;;;;;;;6.55;4.15;;;18.00;74.80;;;;;;5057501;28;20098;-58
2023/06/13 01:55:37;;;;;;;10.63;4.30;;;17.90;74.40;;;;;;5057669;28;20498;-58
2023/06/13 01:58:08;;;;;;;9.55;4.43;;;17.80;75.10;;;;;;5047139;28;20495;-59
2023/06/13 02:00:34;;;;;;;5.05;4.18;;;17.80;74.80;;;;;;5046788;28;20415;-59
2023/06/13 02:03:04;;;;;;;5.80;4.30;;;17.80;75.00;;;;;;5082228;28;20105;-57
2023/06/13 02:05:30;;;;;;;6.82;4.47;;;17.80;75.40;;;;;;5069245;28;20044;-59
2023/06/13 02:07:56;;;;;;;5.65;4.35;;;17.80;75.20;;;;;;5066636;28;20175;-58
2023/06/13 02:10:23;;;;;;;7.75;4.45;;;17.70;75.20;;;;;;5067801;28;20407;-58
2023/06/13 02:12:49;;;;;;;8.05;4.10;;;17.70;75.40;;;;;;5051041;28;20051;-58
2023/06/13 02:15:15;;;;;;;9.82;4.78;;;17.60;75.40;;;;;;5065669;28;20040;-59
2023/06/13 02:17:41;;;;;;;7.60;4.68;;;17.60;75.50;;;;;;5063254;28;20043;-59
2023/06/13 02:20:08;;;;;;;7.20;4.25;;;17.60;75.50;;;;;;5065883;28;20473;-58
2023/06/13 02:22:34;;;;;;;6.30;4.25;;;17.50;75.70;;;;;;5069927;28;20481;-58
2023/06/13 02:24:59;;;;;;;5.85;3.78;;;17.50;75.90;;;;;;5077869;28;20032;-59
2023/06/13 02:27:25;;;;;;;8.20;3.90;;;17.50;75.70;;;;;;5050189;28;20032;-58
2023/06/13 02:29:53;;;;;;;5.97;4.07;;;17.50;75.80;;;;;;5070278;28;20147;-58
2023/06/13 02:32:18;;;;;;;7.28;3.83;;;17.40;75.90;;;;;;5080544;28;20047;-59
2023/06/13 02:34:44;;;;;;;5.25;3.78;;;17.30;76.40;;;;;;5061625;28;20045;-59
2023/06/13 02:37:10;;;;;;;10.77;4.88;;;17.30;77.30;;;;;;5089792;27;20036;-59
2023/06/13 02:39:36;;;;;;;10.52;4.55;;;17.20;77.30;;;;;;5067480;28;20085;-59
2023/06/13 02:42:02;;;;;;;8.85;4.53;;;17.20;77.30;;;;;;5083363;28;20488;-59
2023/06/13 02:44:28;;;;;;;7.07;4.13;;;17.10;77.40;;;;;;5070394;28;20177;-57
2023/06/13 02:46:53;;;;;;;6.32;4.65;;;17.10;77.60;;;;;;5079613;28;20062;-59
2023/06/13 02:49:19;;;;;;;7.28;4.72;;;17.10;77.90;;;;;;5071229;28;20035;-59
2023/06/13 02:51:45;;;;;;;8.55;4.70;;;17.20;78.30;;;;;;5061788;28;20642;-59
2023/06/13 02:54:11;;;;;;;7.57;4.47;;;17.10;78.20;;;;;;5066249;28;20105;-59
2023/06/13 02:56:37;;;;;;;6.45;3.97;;;17.10;78.30;;;;;;5074887;28;20123;-59
2023/06/13 02:59:03;;;;;;;7.88;4.07;;;17.10;78.80;;;;;;5078659;28;20132;-59
2023/06/13 03:01:29;;;;;;;9.63;4.53;;;17.10;78.80;;;;;;5052994;28;20043;-58
2023/06/13 03:03:54;;;;;;;7.30;3.92;;;17.10;78.80;;;;;;5038468;28;20078;-59
2023/06/13 03:06:20;;;;;;;8.52;4.45;;;17.00;79.20;;;;;;5049584;28;20040;-58
2023/06/13 03:08:48;;;;;;;8.98;4.28;;;17.00;79.60;;;;;;5066148;28;20498;-59
2023/06/13 03:11:14;;;;;;;6.93;4.43;;;17.00;79.50;;;;;;5051918;28;20056;-59
2023/06/13 03:13:40;;;;;;;6.97;4.65;;;17.00;79.70;;;;;;5071997;28;20044;-59
2023/06/13 03:16:06;;;;;;;8.55;4.45;;;16.90;79.40;;;;;;5082850;28;20559;-58
2023/06/13 03:18:36;;;;;;;7.28;4.90;;;17.00;79.60;;;;;;5065156;28;20044;-59
2023/06/13 03:21:03;;;;;;;10.13;5.30;;;16.90;79.80;;;;;;5060601;28;20036;-59
2023/06/13 03:23:28;;;;;;;6.13;4.47;;;16.80;80.00;;;;;;5062366;28;20079;-59
2023/06/13 03:25:54;;;;;;;7.68;5.00;;;16.80;80.10;;;;;;5077065;28;20059;-59
2023/06/13 03:28:20;;;;;;;8.20;4.47;;;16.80;80.30;;;;;;5048755;28;20032;-59
2023/06/13 03:30:46;;;;;;;9.23;5.03;;;16.70;80.40;;;;;;5056862;28;20043;-59
2023/06/13 03:33:11;;;;;;;10.18;5.15;;;16.70;80.40;;;;;;5062468;28;20464;-59
2023/06/13 03:35:38;;;;;;;6.63;4.00;;;16.70;80.50;;;;;;5051417;28;20044;-59
2023/06/13 03:38:04;;;;;;;7.45;4.45;;;16.70;80.60;;;;;;5065188;28;20076;-59
2023/06/13 03:40:30;;;;;;;10.70;5.13;;;16.70;81.50;;;;;;5070196;28;20103;-58
2023/06/13 03:45:28;;;;;;;7.05;4.50;;;16.60;81.60;;;;;;5058675;28;20045;-54
2023/06/13 03:47:53;;;;;;;11.23;4.85;;;16.60;81.90;;;;;;5064575;28;20450;-51
2023/06/13 03:50:19;;;;;;;10.98;4.72;;;16.70;82.30;;;;;;5028932;28;20052;-53
2023/06/13 03:52:45;;;;;;;9.20;4.95;;;16.70;82.10;;;;;;5043308;28;20198;-54
2023/06/13 03:55:11;;;;;;;7.40;5.00;;;16.70;82.00;;;;;;5059818;28;20040;-53
2023/06/13 03:57:40;;;;;;;9.20;5.05;;;16.70;82.00;;;;;;5062742;28;20136;-53
2023/06/13 04:00:07;;;;;;;9.32;5.28;;;16.60;82.10;;;;;;5065629;28;20040;-54
2023/06/13 04:02:33;;;;;;;9.15;4.68;;;16.60;82.60;;;;;;5084149;28;20432;-53
2023/06/13 04:05:00;;;;;;;8.20;5.68;;;16.60;82.60;;;;;;5065640;28;20036;-52
2023/06/13 04:07:26;;;;;;;8.93;5.10;;;16.60;82.40;;;;;;5064374;28;20089;-54
2023/06/13 04:09:52;;;;;;;7.13;4.50;;;16.60;82.60;;;;;;5057372;28;20048;-51
2023/06/13 04:12:18;;;;;;;7.63;4.93;;;16.70;82.90;;;;;;5061486;28;20494;-53
2023/06/13 04:14:47;;;;;;;9.45;4.70;;;16.70;82.80;;;;;;5084117;28;20078;-53
2023/06/13 04:17:12;;;;;;;8.38;5.40;;;16.60;83.00;;;;;;5035470;28;20447;-53
2023/06/13 04:19:39;;;;;;;8.57;4.78;;;16.60;83.00;;;;;;5049759;28;20132;-55
2023/06/13 04:22:08;;;;;;;8.13;5.28;;;16.50;83.00;;;;;;5082095;28;20063;-51
2023/06/13 04:24:34;;;;;;;6.43;4.75;;;16.50;83.10;;;;;;5065963;28;20399;-54
2023/06/13 04:27:03;;;;;;;8.10;4.68;;;16.60;82.90;;;;;;5062029;28;20044;-54
2023/06/13 04:29:30;;;;;;;6.30;4.50;;;16.60;82.70;;;;;;5067976;28;20529;-52
2023/06/13 04:31:56;;;;;;;9.25;4.40;;;16.60;82.80;;;;;;5066082;28;20032;-52
2023/06/13 04:34:24;;;;;;;7.40;4.68;;;16.50;83.00;;;;;;5048207;28;20442;-50
2023/06/13 04:36:55;;;;;;;10.02;4.60;;;16.50;82.90;;;;;;5046177;28;20043;-53
2023/06/13 04:39:24;;;;;;;7.18;4.38;;;16.60;82.90;;;;;;5081166;28;20498;-53
2023/06/13 04:41:55;;;;;;;8.25;4.97;;;16.60;82.90;;;;;;5081957;28;20048;-52
2023/06/13 04:44:25;;;;;;;7.63;5.25;;;16.60;82.80;;;;;;5071769;28;20036;-54
2023/06/13 04:47:01;;;;;;;5.75;4.28;;;16.70;82.70;;;;;;5063616;28;20048;-54
2023/06/13 04:49:27;;;;;;;7.45;4.53;;;16.70;83.00;;;;;;5074078;28;20093;-54
2023/06/13 04:51:54;;;;;;;7.93;4.78;;;16.70;83.20;;;;;;5077429;28;20459;-54
2023/06/13 04:54:21;;;;;;;9.52;4.95;;;16.70;82.80;;;;;;5080515;28;20076;-53
2023/06/13 04:56:49;;;;;;;6.47;4.30;;;16.80;82.80;;;;;;5062507;28;20502;-52
2023/06/13 04:59:15;;;;;;;7.43;4.50;;;16.80;82.50;;;;;;5066465;28;20051;-54
2023/06/13 05:01:40;;;;;;;9.27;4.55;;;16.80;83.00;;;;;;5061689;28;20036;-52
2023/06/13 05:04:06;;;;;;;7.57;4.78;;;16.80;82.40;;;;;;5083620;28;20054;-54
2023/06/13 05:06:34;;;;;;;12.32;4.68;;;16.90;82.30;;;;;;5082498;28;20032;-53
2023/06/13 05:09:00;;;;;;;7.75;4.72;;;16.90;81.80;;;;;;5075938;28;20029;-53
2023/06/13 05:11:26;;;;;;;6.85;4.60;;;16.90;81.70;;;;;;5081619;28;20108;-51
2023/06/13 05:13:51;;;;;;;6.72;4.78;;;17.00;81.90;;;;;;5063238;28;20530;-54
2023/06/13 05:16:18;;;;;;;8.55;4.38;;;17.00;81.40;;;;;;5048366;28;20772;-53
2023/06/13 05:18:44;;;;;;;8.32;4.45;;;17.10;81.50;;;;;;5047517;28;20109;-55
2023/06/13 05:21:16;;;;;;;8.13;4.63;;;17.10;80.90;;;;;;5067002;28;20380;-53
2023/06/13 05:23:43;;;;;;;7.32;4.60;;;17.10;80.90;;;;;;5050926;28;20063;-54
2023/06/13 05:26:10;;;;;;;6.07;4.40;;;17.20;80.80;;;;;;5060664;28;20044;-54
2023/06/13 05:28:39;;;;;;;7.03;5.05;;;17.30;80.30;;;;;;5049012;28;20101;-54
2023/06/13 05:31:06;;;;;;;5.47;4.32;;;17.30;79.90;;;;;;5047363;28;20738;-52
2023/06/13 05:33:33;;;;;;;6.72;4.60;;;17.40;80.50;;;;;;5077721;28;20082;-54
2023/06/13 05:36:02;;;;;;;14.57;4.78;;;17.50;80.40;;;;;;5049761;28;20474;-53
2023/06/13 05:38:27;;;;;;;6.00;4.50;;;17.60;80.40;;;;;;5082226;28;20077;-52
2023/06/13 05:40:53;;;;;;;12.60;5.38;;;17.70;80.60;;;;;;5085649;28;20445;-54
2023/06/13 05:43:19;;;;;;;6.95;4.60;;;17.70;80.30;;;;;;5084958;28;20032;-51
2023/06/13 05:45:47;;;;;;;7.72;4.75;;;17.80;79.50;;;;;;5071851;28;20032;-51
2023/06/13 05:48:13;;;;;;;7.75;4.63;;;17.80;79.70;;;;;;5050504;28;20059;-53
2023/06/13 05:50:39;;;;;;;7.30;4.60;;;17.90;79.20;;;;;;5068349;28;20036;-54
2023/06/13 05:53:04;;;;;;;8.05;5.30;;;18.00;78.70;;;;;;5069725;28;20091;-53
2023/06/13 05:55:30;;;;;;;7.65;4.78;;;18.10;78.60;;;;;;5069375;28;20040;-54
2023/06/13 05:57:56;;;;;;;7.95;4.63;;;18.10;78.20;;;;;;5078843;28;20028;-51
2023/06/13 06:00:22;;;;;;;7.80;4.80;;;18.20;78.00;;;;;;5082961;28;20123;-53
2023/06/13 06:02:47;;;;;;;8.48;4.70;;;18.20;77.50;;;;;;5049054;28;20051;-54
2023/06/13 06:05:14;;;;;;;6.05;4.30;;;18.30;77.80;;;;;;5083506;28;20036;-53
2023/06/13 06:07:43;;;;;;;6.35;4.63;;;18.30;77.70;;;;;;5086162;28;20044;-53
2023/06/13 06:10:10;;;;;;;8.13;4.60;;;18.40;77.90;;;;;;5068131;28;20401;-53
2023/06/13 06:12:36;;;;;;;7.45;4.85;;;18.50;77.50;;;;;;5087106;28;20044;-53
2023/06/13 06:15:03;;;;;;;7.78;5.18;;;18.60;77.00;;;;;;5067809;28;20158;-53
2023/06/13 06:17:28;;;;;;;6.75;4.70;;;18.60;77.20;;;;;;5070712;28;20152;-52
2023/06/13 06:19:54;;;;;;;6.20;4.38;;;18.80;77.00;;;;;;5080780;28;21413;-54
2023/06/13 06:22:20;;;;;;;5.90;4.40;;;18.80;76.50;;;;;;5065764;28;20058;-52
2023/06/13 06:24:46;;;;;;;7.40;4.50;;;19.00;76.60;;;;;;5063497;28;20101;-53
2023/06/13 06:27:12;;;;;;;7.70;4.60;;;19.10;75.40;;;;;;5086438;28;20028;-53
2023/06/13 06:29:39;;;;;;;9.85;4.65;;;19.20;75.20;;;;;;5082002;28;20505;-53
2023/06/13 06:32:06;;;;;;;6.88;4.80;;;19.30;74.50;;;;;;5070461;28;20040;-54
2023/06/13 06:34:32;;;;;;;9.05;4.25;;;19.40;73.40;;;;;;5083712;28;20036;-53
2023/06/13 06:36:58;;;;;;;11.63;4.05;;;19.50;73.70;;;;;;5086417;28;20036;-53
2023/06/13 06:39:24;;;;;;;9.73;3.63;;;19.70;73.10;;;;;;5075102;28;20050;-54
2023/06/13 06:41:49;;;;;;;8.43;3.70;;;19.80;71.40;;;;;;5082639;28;20072;-54
2023/06/13 06:44:15;;;;;;;6.70;3.53;;;19.80;71.00;;;;;;5081609;28;20410;-54
2023/06/13 06:46:41;;;;;;;5.80;3.97;;;19.90;70.90;;;;;;5048149;28;20082;-55
2023/06/13 06:49:07;;;;;;;8.60;3.80;;;20.00;70.20;;;;;;5058870;28;20040;-54
2023/06/13 06:51:34;;;;;;;6.43;3.85;;;20.10;70.30;;;;;;5082149;28;20051;-54
2023/06/13 06:54:00;;;;;;;13.60;3.90;;;20.10;70.50;;;;;;5061556;28;20213;-53
2023/06/13 06:56:26;;;;;;;4.88;3.33;;;20.30;70.50;;;;;;5081801;28;20039;-51
2023/06/13 06:58:52;;;;;;;8.25;3.95;;;20.40;70.50;;;;;;5077289;28;20490;-53
2023/06/13 07:01:18;;;;;;;6.75;3.10;;;20.50;70.80;;;;;;5058070;28;20040;-53
2023/06/13 07:03:47;;;;;;;7.80;3.22;;;20.60;70.80;;;;;;5081583;28;20510;-53
2023/06/13 07:06:13;;;;;;;7.45;3.45;;;20.80;71.30;;;;;;5081332;28;20587;-52
2023/06/13 07:08:42;;;;;;;6.90;3.67;;;20.90;70.80;;;;;;5063160;28;20054;-53
2023/06/13 07:11:07;;;;;;;9.65;3.53;;;21.10;70.00;;;;;;5084734;28;20063;-53
2023/06/13 07:13:33;;;;;;;5.10;3.25;;;21.20;69.60;;;;;;5084824;28;20387;-52
2023/06/13 07:16:00;;;;;;;6.38;3.25;;;21.30;69.80;;;;;;5065989;28;20332;-54
2023/06/13 07:18:26;;;;;;;5.05;3.30;;;21.40;68.90;;;;;;5061914;28;20044;-53
2023/06/13 07:20:52;;;;;;;10.45;3.78;;;21.50;69.40;;;;;;5061166;28;20039;-53
2023/06/13 07:23:18;;;;;;;6.40;3.20;;;21.60;69.00;;;;;;5046628;28;20390;-54
2023/06/13 07:25:43;;;;;;;6.32;3.55;;;21.70;68.50;;;;;;5082715;28;20506;-52
2023/06/13 07:28:09;;;;;;;5.03;3.38;;;21.70;68.60;;;;;;5059952;28;20047;-51
2023/06/13 07:30:36;;;;;;;5.80;3.20;;;21.80;68.30;;;;;;5077955;28;20032;-54
2023/06/13 07:33:02;;;;;;;4.40;2.95;;;21.90;68.80;;;;;;5088076;28;20039;-53
2023/06/13 07:35:28;;;;;;;6.22;4.03;;;22.00;68.40;;;;;;5059355;28;20506;-51
2023/06/13 07:37:54;;;;;;;5.10;3.20;;;22.00;68.10;;;;;;5049752;28;20063;-52
2023/06/13 07:40:21;;;;;;;5.13;2.97;;;22.10;68.70;;;;;;5067392;28;20040;-52
2023/06/13 07:42:48;;;;;;;7.18;2.60;;;22.20;68.90;;;;;;5066451;28;20453;-51
2023/06/13 07:45:14;;;;;;;5.57;2.97;;;22.40;68.80;;;;;;5043506;28;20048;-55
2023/06/13 07:47:40;;;;;;;4.90;3.33;;;22.50;68.10;;;;;;5082219;28;20059;-53
2023/06/13 07:50:06;;;;;;;6.18;3.08;;;22.70;67.30;;;;;;5070275;28;20123;-54
2023/06/13 07:52:32;;;;;;;7.80;3.35;;;22.80;67.30;;;;;;5046414;28;20044;-51
2023/06/13 07:54:58;;;;;;;4.97;3.25;;;22.90;65.40;;;;;;5086660;28;20410;-53
2023/06/13 07:57:24;;;;;;;6.82;3.10;;;22.80;65.40;;;;;;5081011;28;20047;-53
2023/06/13 07:59:50;;;;;;;9.43;2.80;;;22.90;64.20;;;;;;5063146;28;20347;-51
2023/06/13 08:02:16;;;;;;;4.30;2.50;;;23.00;62.70;;;;;;5079895;28;20036;-52
2023/06/13 08:04:41;;;;;;;5.13;2.70;;;23.10;61.70;;;;;;5067190;28;20028;-52
2023/06/13 08:07:09;;;;;;;5.90;2.53;;;23.10;61.90;;;;;;5066669;28;20344;-53
2023/06/13 08:09:35;;;;;;;5.00;2.50;;;23.20;59.80;;;;;;5085888;28;20044;-54
2023/06/13 08:12:01;;;;;;;4.63;2.90;;;23.20;59.80;;;;;;5083991;28;20051;-54
2023/06/13 08:14:26;;;;;;;8.70;3.53;;;23.30;59.10;;;;;;5060121;28;20044;-50
2023/06/13 08:16:52;;;;;;;7.65;3.28;;;23.40;58.90;;;;;;5050765;28;20095;-51
2023/06/13 08:19:18;;;;;;;7.50;3.33;;;23.50;57.10;;;;;;5057940;28;20051;-51
2023/06/13 08:21:46;;;;;;;5.80;2.95;;;23.60;58.50;;;;;;5083271;28;20568;-53
2023/06/13 08:24:13;;;;;;;3.47;2.65;;;23.70;58.00;;;;;;5064077;28;20101;-52
2023/06/13 08:26:39;;;;;;;5.07;2.92;;;23.60;57.70;;;;;;5051139;28;20054;-50
2023/06/13 08:29:06;;;;;;;5.60;3.00;;;23.80;58.10;;;;;;5063091;28;20477;-53
2023/06/13 08:31:32;;;;;;;7.28;3.67;;;23.90;57.30;;;;;;5044768;28;20040;-50
2023/06/13 08:33:59;;;;;;;5.80;3.22;;;23.90;56.80;;;;;;5058929;28;20291;-53
2023/06/13 08:36:25;;;;;;;4.80;2.80;;;23.90;57.60;;;;;;5045673;28;20044;-51
2023/06/13 08:39:00;;;;;;;4.88;3.17;;;24.00;56.10;;;;;;5080755;28;20051;-54
2023/06/13 08:41:26;;;;;;;6.80;3.55;;;24.00;56.00;;;;;;5064732;28;20615;-51
2023/06/13 08:43:53;;;;;;;10.70;3.42;;;24.10;56.60;;;;;;5080317;28;20063;-52
2023/06/13 08:46:19;;;;;;;4.35;3.35;;;24.20;57.40;;;;;;5064434;28;20070;-51
2023/06/13 08:48:45;;;;;;;6.20;2.90;;;24.30;57.40;;;;;;5083325;28;20032;-53
2023/06/13 08:51:16;;;;;;;6.95;3.22;;;24.40;57.30;;;;;;5059982;28;20411;-54
2023/06/13 08:53:51;;;;;;;6.22;3.63;;;24.50;58.10;;;;;;5045334;28;20523;-53
2023/06/13 08:56:21;;;;;;;4.63;3.60;;;24.70;58.60;;;;;;5082655;28;20080;-53
2023/06/13 08:59:03;;;;;;;5.70;3.45;;;24.80;58.60;;;;;;5061387;28;20128;-54
2023/06/13 09:01:30;;;;;;;5.80;3.63;;;24.80;57.90;;;;;;5065299;28;20036;-52
2023/06/13 09:03:57;;;;;;;5.40;3.90;;;24.90;58.00;;;;;;5049227;28;20048;-53
2023/06/13 09:06:24;;;;;;;9.13;3.67;;;25.10;58.50;;;;;;5079772;28;20507;-54
2023/06/13 09:08:51;;;;;;;8.82;3.85;;;25.00;57.40;;;;;;5074885;28;20038;-54
2023/06/13 09:11:19;;;;;;;9.13;4.63;;;24.90;56.70;;;;;;5046032;28;20047;-54
2023/06/13 09:13:47;;;;;;;18.13;10.20;;;24.80;56.30;;;;;;5081165;28;20040;-52
2023/06/13 09:16:13;;;;;;;77.72;23.90;;;24.90;57.60;;;;;;5058459;28;20149;-54
2023/06/13 09:18:43;;;;;;;7.57;3.80;;;25.10;58.10;;;;;;5078197;28;20047;-53
2023/06/13 09:21:12;;;;;;;6.63;3.75;;;25.20;57.30;;;;;;5064002;28;20036;-50
2023/06/13 09:23:38;;;;;;;6.50;3.97;;;25.30;56.90;;;;;;5061561;28;20071;-53
2023/06/13 09:26:05;;;;;;;4.15;3.40;;;25.30;56.70;;;;;;5060756;28;20482;-54
2023/06/13 09:28:40;;;;;;;6.97;3.88;;;25.30;56.90;;;;;;5059746;28;20039;-54
2023/06/13 09:31:09;;;;;;;6.90;4.15;;;25.40;56.80;;;;;;5077646;28;20040;-53
2023/06/13 09:33:36;;;;;;;9.23;3.67;;;25.50;57.10;;;;;;5062503;28;20093;-51
2023/06/13 09:36:02;;;;;;;7.38;3.80;;;25.60;57.60;;;;;;5082313;28;20036;-53
2023/06/13 09:38:29;;;;;;;4.40;3.25;;;25.60;57.80;;;;;;5061059;28;20036;-54
2023/06/13 09:40:56;;;;;;;7.57;4.15;;;25.70;57.10;;;;;;5077089;28;20082;-54
2023/06/13 09:43:23;;;;;;;4.72;3.80;;;25.90;56.40;;;;;;5060058;28;20047;-55
2023/06/13 09:45:50;;;;;;;6.82;3.28;;;26.10;55.70;;;;;;5059121;28;20459;-54
2023/06/13 09:48:18;;;;;;;7.22;4.22;;;26.10;57.60;;;;;;5057236;28;20040;-55
2023/06/13 09:50:43;;;;;;;5.43;3.17;;;26.00;56.30;;;;;;5076785;28;20123;-53
2023/06/13 09:53:10;;;;;;;5.72;3.40;;;26.10;54.80;;;;;;5079602;28;20044;-56
2023/06/13 09:55:36;;;;;;;6.65;3.85;;;26.10;55.40;;;;;;5063072;28;20044;-52
2023/06/13 09:58:03;;;;;;;4.50;3.45;;;26.00;54.80;;;;;;5063273;28;20609;-50
2023/06/13 10:00:29;;;;;;;4.78;3.33;;;26.10;56.60;;;;;;5063544;28;20055;-55
2023/06/13 10:02:58;;;;;;;7.47;3.25;;;26.30;57.50;;;;;;5063676;28;20036;-54
2023/06/13 10:05:24;;;;;;;5.75;3.70;;;26.30;56.60;;;;;;5083338;28;20036;-54
2023/06/13 10:07:54;;;;;;;7.45;3.42;;;26.10;55.20;;;;;;5062780;28;20364;-53
2023/06/13 10:10:20;;;;;;;4.60;2.88;;;26.00;52.70;;;;;;5081469;28;20047;-52
2023/06/13 10:13:13;;;;;;;6.07;3.17;;;26.00;52.70;;;;;;5077926;28;20028;-56
2023/06/13 10:15:52;;;;;;;5.77;3.13;;;26.20;52.70;;;;;;5076883;28;20498;-56
2023/06/13 10:18:24;;;;;;;6.53;3.15;;;26.40;51.70;;;;;;5076086;28;20343;-55
2023/06/13 10:20:57;;;;;;;4.95;2.78;;;26.50;49.30;;;;;;5076841;28;20043;-53
2023/06/13 10:23:30;;;;;;;5.10;2.93;;;26.50;51.20;;;;;;5083632;28;20048;-55
2023/06/13 10:26:00;;;;;;;4.38;2.90;;;26.60;55.70;;;;;;5078695;28;20072;-56
2023/06/13 10:28:52;;;;;;;5.20;3.00;;;26.70;54.40;;;;;;5063702;28;20445;-55
2023/06/13 10:31:28;;;;;;;3.28;2.78;;;26.50;56.90;;;;;;5061336;28;20048;-56
2023/06/13 10:34:14;;;;;;;8.73;3.30;;;26.60;56.20;;;;;;5064332;28;20101;-51
2023/06/13 10:37:00;;;;;;;8.25;3.55;;;26.80;56.90;;;;;;5069183;28;20040;-55
2023/06/13 10:39:56;;;;;;;5.95;2.72;;;26.90;58.00;;;;;;5067496;28;20044;-52
2023/06/13 10:42:39;;;;;;;7.47;3.30;;;26.90;58.40;;;;;;5063866;28;20036;-55
2023/06/13 10:45:07;;;;;;;;;;;27.10;56.50;;;;;;5063594;28;20205;-55
2023/06/13 10:47:36;;;;;;;7.32;2.80;;;27.10;53.50;;;;;;5062517;28;20667;-54
2023/06/13 10:50:03;;;;;;;7.68;2.88;;;27.10;56.60;;;;;;5066002;28;20646;-55
2023/06/13 10:52:33;;;;;;;4.65;2.83;;;27.10;57.60;;;;;;5062634;28;20040;-56
2023/06/13 10:55:00;;;;;;;4.95;2.88;;;27.20;58.50;;;;;;5074513;28;20118;-53
2023/06/13 10:57:49;;;;;;;6.13;2.53;;;27.20;59.20;;;;;;5084297;28;20032;-55
2023/06/13 11:00:34;;;;;;;8.73;2.53;;;27.30;60.40;;;;;;5080536;28;20047;-53
2023/06/13 11:03:12;;;;;;;4.20;2.55;;;27.10;59.80;;;;;;5082403;28;20059;-51
2023/06/13 11:05:47;;;;;;;5.90;2.72;;;27.10;60.60;;;;;;5085103;28;20246;-54
2023/06/13 11:08:19;;;;;;;6.10;3.08;;;27.00;60.90;;;;;;5080819;28;20203;-53
2023/06/13 11:10:50;;;;;;;7.47;2.63;;;27.00;61.40;;;;;;5060804;28;20043;-53
2023/06/13 11:13:21;;;;;;;4.30;2.88;;;27.10;62.20;;;;;;5078135;28;20557;-54
2023/06/13 11:15:50;;;;;;;5.25;2.60;;;27.10;60.40;;;;;;5060964;28;20067;-54
2023/06/13 11:18:19;;;;;;;4.88;3.28;;;27.00;59.60;;;;;;5047440;28;20036;-54
2023/06/13 11:20:51;;;;;;;4.65;2.45;;;27.10;59.00;;;;;;5082249;28;20089;-50
2023/06/13 11:23:32;;;;;;;4.17;2.70;;;27.20;58.00;;;;;;5062350;28;20082;-52
2023/06/13 11:25:58;;;;;;;4.25;2.70;;;27.20;58.20;;;;;;5078421;28;20029;-53
2023/06/13 11:28:24;;;;;;;7.43;2.40;;;27.10;58.20;;;;;;5056201;28;20086;-54
2023/06/13 11:30:52;;;;;;;6.53;2.45;;;26.90;58.00;;;;;;5061114;28;20111;-55
2023/06/13 11:33:19;;;;;;;3.83;2.30;;;26.90;57.10;;;;;;5077723;28;23063;-52
2023/06/13 11:35:53;;;;;;;5.90;2.22;;;26.80;55.90;;;;;;5059276;28;20109;-53
2023/06/13 11:38:24;;;;;;;5.72;2.00;;;26.80;55.50;;;;;;5064457;28;20126;-54
2023/06/13 11:40:56;;;;;;;7.03;2.20;;;26.90;55.60;;;;;;5081924;28;20262;-53
2023/06/13 11:43:24;;;;;;;3.30;1.83;;;27.00;57.20;;;;;;5075712;28;20079;-53
2023/06/13 11:45:51;;;;;;;3.45;2.10;;;27.00;57.40;;;;;;5062881;28;20043;-55
2023/06/13 11:48:22;;;;;;;4.40;2.00;;;27.20;57.40;;;;;;5076305;28;20048;-55
2023/06/13 11:50:48;;;;;;;4.63;2.25;;;27.10;55.50;;;;;;5056491;28;20062;-53
2023/06/13 11:53:15;;;;;;;5.25;2.13;;;26.80;56.20;;;;;;5048416;28;20075;-55
2023/06/13 11:55:41;;;;;;;4.70;2.13;;;27.00;57.40;;;;;;5059235;28;20052;-56
2023/06/13 11:58:06;;;;;;;5.88;2.55;;;27.10;55.90;;;;;;5080638;28;20059;-52
2023/06/13 12:00:48;;;;;;;3.85;1.90;;;27.00;55.80;;;;;;5079198;28;20043;-55
2023/06/13 12:03:15;;;;;;;8.43;2.50;;;27.20;56.60;;;;;;5057467;28;20382;-56
2023/06/13 12:05:41;;;;;;;3.97;2.05;;;27.30;56.20;;;;;;5061753;28;20043;-55
2023/06/13 12:08:06;;;;;;;4.45;2.28;;;27.30;56.40;;;;;;5059597;28;20466;-55
2023/06/13 12:10:32;;;;;;;5.15;2.28;;;27.30;55.70;;;;;;5078117;28;20067;-55
2023/06/13 12:12:58;;;;;;;4.68;2.35;;;26.80;53.90;;;;;;5077293;28;20036;-56
2023/06/13 12:15:27;;;;;;;5.20;2.20;;;26.80;55.50;;;;;;5077330;28;20774;-55
2023/06/13 12:18:02;;;;;;;4.32;2.53;;;26.90;55.00;;;;;;5056408;28;20145;-54
2023/06/13 12:20:29;;;;;;;4.53;2.40;;;26.90;55.70;;;;;;5081227;28;20070;-55
2023/06/13 12:22:56;;;;;;;3.80;2.30;;;27.10;55.90;;;;;;5083483;28;20119;-53
2023/06/13 12:25:25;;;;;;;5.15;2.53;;;27.30;56.00;;;;;;5062847;28;20390;-54
2023/06/13 12:27:51;;;;;;;4.97;2.35;;;27.40;56.50;;;;;;5079147;28;20043;-54
2023/06/13 12:30:19;;;;;;;4.72;2.15;;;27.50;55.70;;;;;;5080183;28;20058;-53
2023/06/13 12:32:48;;;;;;;4.63;2.00;;;27.70;55.70;;;;;;5064196;28;20043;-54
2023/06/13 12:35:19;;;;;;;6.07;2.05;;;27.80;55.60;;;;;;5064965;28;20050;-54
2023/06/13 12:37:54;;;;;;;4.75;2.08;;;27.70;56.00;;;;;;5083780;28;20028;-55
2023/06/13 12:40:29;;;;;;;4.40;2.08;;;27.70;56.30;;;;;;5070605;28;20048;-55
2023/06/13 12:43:00;;;;;;;3.65;2.17;;;27.70;56.20;;;;;;5077135;28;20461;-55
2023/06/13 12:45:27;;;;;;;4.70;2.47;;;27.50;56.90;;;;;;5062029;28;20046;-57
2023/06/13 12:47:54;;;;;;;4.97;2.08;;;27.70;57.00;;;;;;5060258;28;20154;-55
2023/06/13 12:50:26;;;;;;;4.47;2.03;;;27.60;56.20;;;;;;5064676;28;20040;-56
2023/06/13 12:53:08;;;;;;;6.13;2.53;;;27.70;57.00;;;;;;5064717;28;20047;-56